Bloom, Kansas
Current Conditions -  °F | °C
As of 4:52 PM on Tuesday 21 Oct 2014 (Local Time) from KDDC Reporting Station
Few Clouds Few Clouds  
Wind Chill: 79°   Ceiling: Unl
Heat Index: 79°   Visibility: 10mi
Dew Point: 53°   Wind: 16mph
Humidity: 40%   Direction: 180°S
Pressure: 30"   Gusts: NA
Location:  37.3916°N, 99.8236°W
Report Text: KDDC 212152Z AUTO 18014KT 10SM FEW060 FEW070 26/12 A3000 RMK AO2 SLP137 T02610117
Loading
Personal Weather Stations






























Interactive Weather Map
Tropical Storm Tracking
New forecast layout! Learn more

10-Day Weather Forecast

Advertisements
Track Severe Weather on mobile